Time;durP1;ratioP1;P1;durP2;ratioP2;P2;SDS_P1;SDS_P2;PMS_P1;PMS_P2;Temp;Humidity;BMP_temperature;BMP_pressure;BME280_temperature;BME280_humidity;BME280_pressure;Samples;Min_cycle;Max_cycle;Signal;HPM_P1;HPM_P2
2023/03/24 00:00:20;;;;;;;3.33;1.92;;;12.70;99.90;;;;;;5017893;28;20080;-85
2023/03/24 00:02:47;;;;;;;3.45;1.40;;;12.70;99.90;;;;;;5016559;28;20021;-87
2023/03/24 00:05:16;;;;;;;3.50;1.65;;;12.70;99.90;;;;;;5017849;28;20026;-81
2023/03/24 00:07:42;;;;;;;3.08;1.90;;;12.80;99.90;;;;;;5031955;28;20061;-83
2023/03/24 00:10:13;;;;;;;6.80;1.70;;;12.90;99.90;;;;;;5017625;28;20065;-83
2023/03/24 00:12:41;;;;;;;4.72;1.95;;;12.90;99.90;;;;;;5021896;28;20519;-83
2023/03/24 00:15:10;;;;;;;5.95;1.80;;;12.90;99.90;;;;;;5017437;28;20029;-85
2023/03/24 00:17:38;;;;;;;2.58;1.30;;;12.90;99.90;;;;;;5031272;28;20084;-86
2023/03/24 00:20:12;;;;;;;7.90;1.58;;;12.90;99.90;;;;;;5179373;23;20025;-84
2023/03/24 00:22:41;;;;;;;3.60;1.63;;;13.00;99.90;;;;;;4990544;28;20025;-83
2023/03/24 00:25:08;;;;;;;6.15;1.58;;;12.90;99.90;;;;;;4995743;28;20270;-82
2023/03/24 00:27:35;;;;;;;8.98;2.00;;;13.00;99.90;;;;;;4991727;28;20034;-83
2023/03/24 00:30:06;;;;;;;6.00;1.90;;;13.00;99.90;;;;;;4986965;28;20018;-81
2023/03/24 00:32:32;;;;;;;2.80;1.52;;;13.00;99.90;;;;;;4986563;28;20092;-81
2023/03/24 00:35:00;;;;;;;4.47;1.63;;;13.00;99.90;;;;;;4987099;28;20469;-82
2023/03/24 00:37:25;;;;;;;1.63;1.50;;;13.00;99.90;;;;;;4995699;28;20476;-82
2023/03/24 00:39:51;;;;;;;4.45;1.63;;;13.10;99.90;;;;;;4991654;28;20255;-84
2023/03/24 00:42:19;;;;;;;3.42;1.70;;;13.10;99.90;;;;;;4990236;28;20018;-82
2023/03/24 00:44:46;;;;;;;2.42;1.52;;;13.00;99.90;;;;;;4987464;28;20529;-83
2023/03/24 00:47:17;;;;;;;4.38;1.60;;;13.10;99.90;;;;;;4990755;28;20042;-81
2023/03/24 00:49:45;;;;;;;3.50;1.70;;;13.00;99.90;;;;;;4986047;28;20249;-81
2023/03/24 00:52:13;;;;;;;3.33;1.80;;;13.10;99.90;;;;;;4987409;28;20073;-87
2023/03/24 00:57:20;;;;;;;2.78;1.83;;;13.10;99.90;;;;;;4989170;23;20089;-81
2023/03/24 00:59:50;;;;;;;4.70;1.90;;;13.10;99.90;;;;;;4994026;28;20470;-83
2023/03/24 01:02:23;;;;;;;2.53;1.80;;;13.20;99.90;;;;;;4989452;28;20026;-81
2023/03/24 01:04:53;;;;;;;;;;;13.10;99.90;;;;;;4993993;28;20030;-83
2023/03/24 01:07:20;;;;;;;2.88;1.60;;;13.20;99.90;;;;;;4992244;28;19914;-81
2023/03/24 01:09:50;;;;;;;2.65;1.75;;;13.10;99.90;;;;;;4999625;28;20088;-81
2023/03/24 01:12:18;;;;;;;2.70;1.42;;;13.20;99.90;;;;;;4999778;28;20030;-80
2023/03/24 01:14:45;;;;;;;2.17;1.63;;;13.20;99.90;;;;;;4989027;28;20025;-85
2023/03/24 01:17:11;;;;;;;3.55;1.83;;;13.20;99.90;;;;;;5000418;28;20026;-89
2023/03/24 01:19:36;;;;;;;3.45;1.80;;;13.30;99.90;;;;;;4992531;28;20695;-86
2023/03/24 01:22:02;;;;;;;3.45;1.60;;;13.30;99.90;;;;;;4995007;28;20117;-84
2023/03/24 01:24:28;;;;;;;3.30;1.52;;;13.30;99.90;;;;;;4991663;28;20112;-86
2023/03/24 01:26:54;;;;;;;3.47;1.88;;;13.40;99.90;;;;;;5003612;28;20022;-87
2023/03/24 01:29:19;;;;;;;2.65;1.75;;;13.40;99.90;;;;;;5000878;28;20441;-88
2023/03/24 01:31:45;;;;;;;2.17;1.58;;;13.40;99.90;;;;;;4993876;28;20101;-85
2023/03/24 01:34:10;;;;;;;4.35;1.70;;;13.40;99.90;;;;;;4989669;28;20208;-86
2023/03/24 01:36:36;;;;;;;7.78;1.63;;;13.50;99.90;;;;;;4992099;28;20099;-88
2023/03/24 01:39:04;;;;;;;2.08;1.70;;;13.50;99.90;;;;;;5000659;28;20053;-89
2023/03/24 01:41:35;;;;;;;3.50;1.70;;;13.60;99.90;;;;;;4995073;28;20109;-85
2023/03/24 01:44:24;;;;;;;4.00;1.67;;;13.50;99.90;;;;;;4996736;28;20049;-85
2023/03/24 01:46:50;;;;;;;2.20;1.67;;;13.50;99.90;;;;;;4996633;28;20030;-89
2023/03/24 01:49:16;;;;;;;1.55;1.45;;;13.50;99.90;;;;;;4995517;28;20030;-89
2023/03/24 01:51:46;;;;;;;1.92;1.70;;;13.60;99.90;;;;;;4997042;28;20022;-86
2023/03/24 01:54:29;;;;;;;3.42;1.60;;;13.50;99.90;;;;;;4996608;28;20561;-88
2023/03/24 01:57:22;;;;;;;2.13;1.33;;;13.60;99.90;;;;;;4997283;28;20030;-86
2023/03/24 01:59:52;;;;;;;1.90;1.60;;;13.60;99.90;;;;;;5005697;28;20078;-85
2023/03/24 02:02:20;;;;;;;1.65;1.40;;;13.50;99.90;;;;;;5015168;28;20027;-85
2023/03/24 02:04:52;;;;;;;2.88;1.60;;;13.50;99.90;;;;;;5026775;28;20018;-82
2023/03/24 02:07:32;;;;;;;4.13;1.70;;;13.50;99.90;;;;;;5023467;28;20034;-85
2023/03/24 02:10:04;;;;;;;1.70;1.60;;;13.60;99.90;;;;;;5000076;28;20099;-85
2023/03/24 02:12:31;;;;;;;1.88;1.60;;;13.50;99.90;;;;;;5001322;28;20118;-87
2023/03/24 02:14:57;;;;;;;1.90;1.40;;;13.60;99.90;;;;;;4993158;28;20093;-86
2023/03/24 02:17:39;;;;;;;6.05;1.80;;;13.60;99.90;;;;;;4999033;28;20026;-84
2023/03/24 02:20:09;;;;;;;1.90;1.40;;;13.70;99.90;;;;;;4990633;28;20496;-87
2023/03/24 02:23:13;;;;;;;1.63;1.52;;;13.70;99.90;;;;;;4992845;28;20343;-85
2023/03/24 02:26:21;;;;;;;2.58;1.80;;;13.60;99.90;;;;;;4997266;28;20031;-80
2023/03/24 02:29:02;;;;;;;2.10;1.90;;;13.70;99.90;;;;;;4989050;28;20464;-82
2023/03/24 02:31:54;;;;;;;2.03;1.77;;;13.60;99.90;;;;;;4998904;28;20030;-81
2023/03/24 02:34:32;;;;;;;2.45;1.80;;;13.60;99.90;;;;;;4986053;28;20068;-81
2023/03/24 02:37:11;;;;;;;2.95;1.77;;;13.50;99.90;;;;;;4985229;28;20684;-80
2023/03/24 02:40:07;;;;;;;3.45;1.55;;;13.50;99.90;;;;;;4992758;28;20065;-80
2023/03/24 02:43:07;;;;;;;3.05;2.05;;;13.50;99.90;;;;;;4997146;28;20058;-82
2023/03/24 02:45:37;;;;;;;3.83;1.58;;;13.50;99.90;;;;;;4990991;28;20069;-81
2023/03/24 02:48:21;;;;;;;3.40;2.08;;;13.40;99.90;;;;;;4992639;28;20389;-80
2023/03/24 02:51:03;;;;;;;4.72;2.22;;;13.40;99.90;;;;;;4991248;28;20401;-81
2023/03/24 02:53:57;;;;;;;2.00;1.88;;;13.50;99.90;;;;;;5000324;28;20017;-84
2023/03/24 02:56:33;;;;;;;2.30;2.08;;;13.50;99.90;;;;;;4995579;28;20235;-85
2023/03/24 02:59:04;;;;;;;4.18;2.05;;;13.50;99.90;;;;;;5008687;28;20054;-85
2023/03/24 03:01:53;;;;;;;4.50;2.47;;;13.40;99.90;;;;;;4998584;28;20022;-83
2023/03/24 03:04:35;;;;;;;2.47;2.05;;;13.50;99.90;;;;;;5004299;28;20566;-81
2023/03/24 03:07:08;;;;;;;3.83;2.15;;;13.50;99.90;;;;;;5023774;28;20624;-82
2023/03/24 03:09:38;;;;;;;3.22;2.28;;;13.50;99.90;;;;;;5035358;28;20026;-87
2023/03/24 03:12:07;;;;;;;3.78;2.20;;;13.60;99.90;;;;;;5024854;28;20022;-92
2023/03/24 03:14:35;;;;;;;2.63;2.05;;;13.60;99.90;;;;;;5021084;28;20025;-84
2023/03/24 03:17:08;;;;;;;2.42;2.05;;;13.60;99.90;;;;;;5019507;28;20038;-81
2023/03/24 03:19:41;;;;;;;2.70;2.35;;;13.60;99.90;;;;;;4993230;28;20021;-87
2023/03/24 03:22:20;;;;;;;3.50;2.20;;;13.70;99.90;;;;;;4995652;28;20239;-88
2023/03/24 03:24:49;;;;;;;3.20;2.28;;;13.70;99.90;;;;;;5003187;28;20029;-88
2023/03/24 03:27:38;;;;;;;3.65;1.80;;;13.70;99.90;;;;;;4993762;28;20041;-91
2023/03/24 03:30:22;;;;;;;6.63;2.53;;;13.70;99.90;;;;;;4986861;28;20037;-81
2023/03/24 03:33:12;;;;;;;9.15;2.53;;;13.70;99.90;;;;;;4993657;28;20395;-86
2023/03/24 03:35:44;;;;;;;3.35;2.05;;;13.80;99.90;;;;;;4989424;28;20030;-86
2023/03/24 03:38:49;;;;;;;2.85;2.55;;;13.90;99.90;;;;;;5008697;28;20030;-91
2023/03/24 03:41:19;;;;;;;4.38;2.30;;;13.90;99.90;;;;;;5000223;28;20118;-85
2023/03/24 03:43:47;;;;;;;4.32;2.05;;;13.90;99.90;;;;;;5001711;28;20058;-90
2023/03/24 03:46:14;;;;;;;4.93;2.20;;;14.00;99.90;;;;;;4993559;28;20026;-83
2023/03/24 03:48:41;;;;;;;4.25;2.55;;;14.00;99.90;;;;;;4994696;28;20032;-91
2023/03/24 03:51:08;;;;;;;3.58;2.40;;;14.00;99.90;;;;;;4994841;28;20038;-90
2023/03/24 03:53:46;;;;;;;2.10;1.67;;;14.00;99.90;;;;;;4996715;28;20022;-94
2023/03/24 03:56:12;;;;;;;1.98;1.73;;;13.90;99.90;;;;;;4993569;28;20103;-88
2023/03/24 03:58:41;;;;;;;3.25;2.00;;;13.90;99.90;;;;;;4988221;28;20026;-80
2023/03/24 04:01:06;;;;;;;3.75;2.03;;;13.90;99.90;;;;;;4989149;28;20776;-82
2023/03/24 04:03:35;;;;;;;3.00;1.45;;;13.90;99.90;;;;;;4988367;28;20053;-81
2023/03/24 04:06:16;;;;;;;2.58;1.60;;;13.90;99.90;;;;;;5137444;23;20024;-85
2023/03/24 04:08:45;;;;;;;2.17;1.70;;;13.90;99.90;;;;;;4971592;28;20043;-90
2023/03/24 04:11:37;;;;;;;2.67;1.95;;;13.90;99.90;;;;;;4981713;28;20034;-86
2023/03/24 04:14:23;;;;;;;2.58;1.30;;;13.80;99.90;;;;;;4922936;28;20034;-85
2023/03/24 04:16:57;;;;;;;2.17;1.60;;;13.80;99.90;;;;;;4931839;28;20281;-82
2023/03/24 04:19:54;;;;;;;2.10;1.80;;;13.80;99.90;;;;;;4931617;28;20050;-81
2023/03/24 04:22:56;;;;;;;2.20;1.77;;;13.90;99.90;;;;;;4921495;28;20058;-81
2023/03/24 04:25:41;;;;;;;2.03;1.52;;;13.70;99.90;;;;;;4914695;28;20035;-80
2023/03/24 04:28:17;;;;;;;2.10;1.90;;;13.70;99.90;;;;;;4915942;29;20518;-79
2023/03/24 04:31:17;;;;;;;2.78;1.63;;;13.60;99.90;;;;;;4928388;28;20423;-79
2023/03/24 04:33:52;;;;;;;2.22;1.63;;;13.40;99.90;;;;;;4915829;28;20035;-79
2023/03/24 04:36:30;;;;;;;1.73;1.58;;;13.40;99.90;;;;;;4921076;29;20025;-86
2023/03/24 04:39:00;;;;;;;1.40;0.88;;;13.30;99.90;;;;;;4930744;28;20393;-88
2023/03/24 04:41:28;;;;;;;3.58;0.80;;;13.10;99.90;;;;;;4937808;28;20038;-93
2023/03/24 04:43:56;;;;;;;1.48;0.88;;;12.90;99.90;;;;;;4936433;28;20098;-89
2023/03/24 04:46:23;;;;;;;4.63;0.90;;;12.70;99.90;;;;;;4994248;28;20015;-88
2023/03/24 04:48:49;;;;;;;5.68;1.00;;;12.50;99.90;;;;;;4975595;28;20034;-88
2023/03/24 04:51:19;;;;;;;3.28;1.00;;;12.40;99.90;;;;;;4998783;28;20158;-90
2023/03/24 04:53:46;;;;;;;2.90;1.00;;;12.30;99.90;;;;;;4978607;28;20518;-90
2023/03/24 04:56:39;;;;;;;6.78;0.90;;;12.20;99.90;;;;;;4980508;28;20023;-88
2023/03/24 04:59:06;;;;;;;;;;;12.20;99.90;;;;;;4980768;28;20022;-93
2023/03/24 05:01:31;;;;;;;8.93;1.60;;;12.20;99.90;;;;;;4985460;28;20436;-80
2023/03/24 05:03:58;;;;;;;2.42;1.27;;;12.10;99.90;;;;;;4969019;28;20015;-80
2023/03/24 05:06:24;;;;;;;3.92;1.30;;;12.10;99.90;;;;;;4973018;28;20037;-80
2023/03/24 05:08:51;;;;;;;5.55;1.98;;;12.00;99.90;;;;;;5136847;23;20041;-90
2023/03/24 05:11:17;;;;;;;4.93;1.70;;;12.00;99.90;;;;;;5008357;28;20033;-87
2023/03/24 05:13:46;;;;;;;7.32;2.10;;;12.00;99.90;;;;;;5157833;23;20395;-80
2023/03/24 05:16:12;;;;;;;6.15;1.80;;;12.10;99.90;;;;;;5009477;28;20026;-83
2023/03/24 05:18:38;;;;;;;5.00;2.35;;;12.10;99.90;;;;;;4995863;28;20028;-80
2023/03/24 05:21:04;;;;;;;10.68;2.10;;;12.10;99.90;;;;;;4994408;28;20535;-81
2023/03/24 05:23:29;;;;;;;7.47;2.38;;;12.10;99.90;;;;;;5001374;28;20056;-91
2023/03/24 05:25:55;;;;;;;8.98;2.80;;;12.20;99.90;;;;;;5006816;28;20025;-86
2023/03/24 05:28:22;;;;;;;9.52;2.40;;;12.20;99.90;;;;;;5006707;28;20144;-91
2023/03/24 05:30:48;;;;;;;10.18;2.80;;;12.20;99.90;;;;;;5005678;28;20056;-90
2023/03/24 05:33:14;;;;;;;10.13;2.92;;;12.20;99.90;;;;;;5001902;28;20052;-90
2023/03/24 05:35:42;;;;;;;5.60;2.65;;;12.10;99.90;;;;;;5158645;23;20545;-94
2023/03/24 05:38:10;;;;;;;6.18;2.90;;;12.20;99.90;;;;;;5012682;28;20065;-91
2023/03/24 05:40:36;;;;;;;6.80;2.28;;;12.10;99.90;;;;;;5011578;28;20112;-88
2023/03/24 05:43:01;;;;;;;8.60;2.40;;;12.20;99.90;;;;;;5017756;28;20098;-88
2023/03/24 05:45:28;;;;;;;4.80;2.85;;;12.10;99.90;;;;;;5135993;23;20049;-90
2023/03/24 05:47:54;;;;;;;10.00;3.13;;;12.00;99.90;;;;;;4999573;28;20037;-92
2023/03/24 05:50:20;;;;;;;9.88;2.92;;;12.00;99.90;;;;;;4998811;28;20486;-87
2023/03/24 05:52:51;;;;;;;12.65;2.80;;;12.00;99.90;;;;;;4998187;28;20026;-80
2023/03/24 05:55:18;;;;;;;9.93;2.67;;;11.90;99.90;;;;;;4993610;28;20573;-81
2023/03/24 05:57:44;;;;;;;7.05;2.55;;;12.00;99.90;;;;;;4989402;28;20034;-82
2023/03/24 06:00:15;;;;;;;10.57;2.83;;;11.90;99.90;;;;;;4991093;28;20116;-80
2023/03/24 06:02:42;;;;;;;5.43;2.38;;;11.90;99.90;;;;;;4990363;28;20032;-95
2023/03/24 06:05:08;;;;;;;10.00;1.80;;;12.00;99.90;;;;;;5006187;28;20029;-85
2023/03/24 06:07:35;;;;;;;7.35;1.88;;;11.90;99.90;;;;;;4995425;28;20250;-83
2023/03/24 06:10:02;;;;;;;6.53;2.20;;;11.90;99.90;;;;;;4998051;28;20171;-79
2023/03/24 06:12:29;;;;;;;12.10;2.33;;;11.90;99.90;;;;;;4995191;28;20038;-80
2023/03/24 06:14:56;;;;;;;5.68;1.63;;;11.90;99.90;;;;;;4996899;28;20022;-82
2023/03/24 06:17:23;;;;;;;7.03;1.63;;;11.90;99.90;;;;;;4999665;28;20018;-82
2023/03/24 06:19:51;;;;;;;5.25;1.83;;;11.90;99.90;;;;;;4991916;28;20071;-81
2023/03/24 06:22:17;;;;;;;6.90;1.80;;;11.90;99.90;;;;;;5005610;28;20037;-90
2023/03/24 06:24:43;;;;;;;3.72;1.88;;;11.90;99.90;;;;;;5003121;28;20033;-89
2023/03/24 06:27:10;;;;;;;9.93;2.30;;;11.90;99.90;;;;;;5002160;28;20475;-81
2023/03/24 06:29:36;;;;;;;10.07;2.53;;;12.00;99.90;;;;;;5002791;28;20026;-90
2023/03/24 06:32:05;;;;;;;8.80;2.17;;;12.10;99.90;;;;;;5001771;28;20044;-89
2023/03/24 06:34:33;;;;;;;10.55;2.47;;;12.10;99.90;;;;;;4996780;28;20100;-88
2023/03/24 06:37:01;;;;;;;16.50;2.50;;;12.10;99.90;;;;;;5001802;28;20022;-90
2023/03/24 06:39:26;;;;;;;5.95;2.53;;;12.20;99.90;;;;;;5004086;28;20030;-91
2023/03/24 06:41:52;;;;;;;7.38;2.25;;;12.10;99.90;;;;;;5005893;28;20045;-95
2023/03/24 06:44:18;;;;;;;6.15;2.20;;;12.20;99.90;;;;;;4997613;28;20061;-80
2023/03/24 06:46:44;;;;;;;12.77;2.20;;;12.20;99.90;;;;;;4989876;28;20521;-82
2023/03/24 06:49:13;;;;;;;4.50;1.42;;;12.20;99.90;;;;;;4989354;28;20509;-81
2023/03/24 06:51:38;;;;;;;8.43;2.35;;;12.20;99.90;;;;;;4992233;28;20029;-79
2023/03/24 06:54:04;;;;;;;10.93;2.13;;;12.30;99.90;;;;;;4992996;28;20105;-81
2023/03/24 06:56:30;;;;;;;8.60;2.28;;;12.30;99.90;;;;;;4994386;28;20041;-88
2023/03/24 06:58:56;;;;;;;7.18;2.25;;;12.30;99.90;;;;;;5000576;28;20036;-84
2023/03/24 07:01:23;;;;;;;8.80;1.98;;;12.30;99.90;;;;;;4997106;28;20054;-79
2023/03/24 07:03:49;;;;;;;5.75;2.05;;;12.30;99.90;;;;;;4990789;28;20285;-78
2023/03/24 07:06:17;;;;;;;10.18;2.50;;;12.40;99.90;;;;;;4992898;28;20034;-78
2023/03/24 07:08:45;;;;;;;12.60;1.83;;;12.40;99.90;;;;;;4989372;28;20733;-80
2023/03/24 07:11:11;;;;;;;6.32;1.70;;;12.40;99.90;;;;;;4996845;28;20022;-88
2023/03/24 07:13:39;;;;;;;7.10;2.03;;;12.50;99.90;;;;;;4987829;28;20698;-89
2023/03/24 07:18:47;;;;;;;9.88;1.70;;;12.60;99.90;;;;;;5599036;23;20056;-87
2023/03/24 07:21:13;;;;;;;10.25;2.10;;;12.50;99.90;;;;;;5020621;28;20389;-84
2023/03/24 07:23:39;;;;;;;8.40;1.63;;;12.50;99.90;;;;;;5014757;28;20025;-87
2023/03/24 07:26:05;;;;;;;11.60;1.73;;;12.60;99.90;;;;;;5021116;28;20030;-90
2023/03/24 07:28:31;;;;;;;10.80;1.83;;;12.60;99.90;;;;;;5019599;28;20045;-92
2023/03/24 07:31:05;;;;;;;15.98;1.95;;;12.60;99.90;;;;;;5015553;28;20006;-84
2023/03/24 07:33:31;;;;;;;13.10;1.63;;;12.60;99.90;;;;;;5017847;28;20040;-90
2023/03/24 07:35:58;;;;;;;9.52;1.52;;;12.70;99.90;;;;;;5023195;28;20037;-86
2023/03/24 07:38:26;;;;;;;10.20;2.03;;;12.80;99.90;;;;;;5026654;28;20030;-83
2023/03/24 07:40:52;;;;;;;13.57;2.65;;;12.80;99.90;;;;;;5015916;28;20234;-85
2023/03/24 07:43:18;;;;;;;9.63;1.70;;;12.80;99.90;;;;;;5023854;28;20578;-86
2023/03/24 07:45:47;;;;;;;12.25;1.95;;;12.90;99.90;;;;;;5014574;28;20401;-81
2023/03/24 07:48:12;;;;;;;9.63;1.92;;;12.80;99.90;;;;;;5019302;28;20069;-82
2023/03/24 07:50:39;;;;;;;12.48;1.85;;;13.00;99.90;;;;;;5014707;28;20609;-81
2023/03/24 07:53:10;;;;;;;20.17;4.00;;;13.10;99.90;;;;;;5012973;28;20113;-82
2023/03/24 07:55:38;;;;;;;11.05;1.63;;;13.10;99.90;;;;;;5009435;28;20489;-83
2023/03/24 07:58:07;;;;;;;13.75;1.65;;;13.40;99.90;;;;;;5015791;28;20048;-83
2023/03/24 08:00:32;;;;;;;11.15;1.83;;;13.30;99.90;;;;;;5012345;28;20026;-94
2023/03/24 08:02:59;;;;;;;17.17;1.75;;;13.40;99.90;;;;;;5032625;28;20033;-90
2023/03/24 08:05:28;;;;;;;14.35;2.25;;;13.50;99.90;;;;;;5015296;28;20036;-88
2023/03/24 08:07:54;;;;;;;10.80;1.50;;;13.50;99.90;;;;;;5016002;28;20553;-84
2023/03/24 08:10:29;;;;;;;19.13;2.20;;;13.50;99.90;;;;;;5021289;28;20030;-88
2023/03/24 08:12:56;;;;;;;11.93;1.48;;;13.60;99.90;;;;;;5019766;28;20026;-87
2023/03/24 08:15:22;;;;;;;12.63;2.08;;;13.70;99.90;;;;;;5021820;28;20036;-83
2023/03/24 08:17:49;;;;;;;12.05;1.80;;;13.50;99.90;;;;;;5031371;28;20096;-87
2023/03/24 08:20:15;;;;;;;9.35;1.42;;;13.50;99.90;;;;;;5019123;28;20025;-87
2023/03/24 08:22:42;;;;;;;8.60;1.50;;;13.40;99.90;;;;;;5026873;28;20029;-87
2023/03/24 08:25:12;;;;;;;8.10;1.58;;;13.50;99.90;;;;;;5021513;28;20030;-88
2023/03/24 08:27:39;;;;;;;80.70;24.05;;;13.50;99.90;;;;;;5015789;28;20081;-89
2023/03/24 08:30:12;;;;;;;35.65;9.98;;;13.60;99.90;;;;;;5017598;28;20326;-90
2023/03/24 08:32:43;;;;;;;10.23;1.75;;;13.80;99.90;;;;;;5035807;28;20099;-86
2023/03/24 08:35:15;;;;;;;13.38;1.63;;;14.20;99.90;;;;;;5018145;28;20105;-90
2023/03/24 08:37:44;;;;;;;10.43;1.55;;;14.40;99.90;;;;;;5020302;28;20075;-85
2023/03/24 08:40:13;;;;;;;10.82;1.77;;;14.60;99.90;;;;;;5018735;28;20095;-89
2023/03/24 08:42:40;;;;;;;7.47;1.73;;;14.80;99.90;;;;;;5017503;28;20519;-87
2023/03/24 08:45:07;;;;;;;14.13;1.38;;;15.00;99.90;;;;;;5013354;28;20057;-84
2023/03/24 08:47:33;;;;;;;18.38;1.65;;;14.70;99.90;;;;;;5016579;28;20092;-90
2023/03/24 08:49:59;;;;;;;15.10;2.20;;;14.80;99.90;;;;;;5024764;28;20026;-86
2023/03/24 08:52:25;;;;;;;8.63;2.25;;;14.80;99.90;;;;;;5027206;28;20025;-87
2023/03/24 08:54:52;;;;;;;11.63;2.00;;;15.00;99.90;;;;;;5020829;28;20036;-87
2023/03/24 08:57:18;;;;;;;11.15;1.73;;;15.10;99.90;;;;;;5019863;28;20074;-83
2023/03/24 08:59:45;;;;;;;216.40;80.60;;;15.00;99.90;;;;;;5020634;28;20026;-83
2023/03/24 09:02:11;;;;;;;13.40;2.53;;;14.90;99.90;;;;;;5023809;28;20033;-90
2023/03/24 09:04:38;;;;;;;7.30;1.75;;;14.80;99.90;;;;;;5013426;28;20250;-85
2023/03/24 09:07:04;;;;;;;12.10;1.70;;;14.50;99.90;;;;;;5015156;28;20025;-85
2023/03/24 09:09:33;;;;;;;14.95;1.70;;;14.30;99.90;;;;;;5022557;28;20444;-87
2023/03/24 09:11:59;;;;;;;12.10;1.45;;;14.20;99.90;;;;;;5028618;28;20034;-90
2023/03/24 09:14:25;;;;;;;15.48;1.70;;;14.10;99.90;;;;;;5027951;28;20845;-87
2023/03/24 09:16:55;;;;;;;7.35;1.88;;;14.20;99.90;;;;;;5023603;28;20035;-84
2023/03/24 09:19:24;;;;;;;9.68;1.50;;;14.30;99.90;;;;;;5056308;28;20045;-85
2023/03/24 09:21:58;;;;;;;9.15;1.48;;;14.30;99.90;;;;;;5038840;28;20025;-87
2023/03/24 09:24:24;;;;;;;12.55;1.48;;;14.80;99.90;;;;;;5023026;28;20022;-83
2023/03/24 09:26:50;;;;;;;13.45;1.67;;;15.20;99.90;;;;;;5021688;28;20030;-91
2023/03/24 09:29:16;;;;;;;10.63;2.08;;;15.10;99.90;;;;;;5023714;28;20177;-89
2023/03/24 09:31:46;;;;;;;13.38;2.03;;;15.70;99.90;;;;;;5023353;28;20026;-92
2023/03/24 09:34:12;;;;;;;5.43;1.40;;;16.50;99.90;;;;;;5026389;28;20025;-89
2023/03/24 09:36:41;;;;;;;9.73;1.67;;;17.20;99.90;;;;;;5030412;28;20053;-90
2023/03/24 09:39:07;;;;;;;38.65;12.18;;;18.00;99.90;;;;;;5027612;28;20064;-90
2023/03/24 09:41:33;;;;;;;9.20;1.92;;;17.50;99.90;;;;;;5024859;28;20036;-88
2023/03/24 09:44:05;;;;;;;17.23;2.30;;;17.50;99.90;;;;;;5024515;28;20025;-89
2023/03/24 09:46:46;;;;;;;17.13;2.65;;;16.70;99.90;;;;;;5027133;28;20049;-86
2023/03/24 09:49:16;;;;;;;12.25;2.03;;;16.10;99.90;;;;;;5032574;28;20036;-85
2023/03/24 09:51:44;;;;;;;10.30;2.08;;;15.70;99.90;;;;;;5034899;28;20014;-86
2023/03/24 09:54:37;;;;;;;9.63;1.60;;;15.70;99.90;;;;;;5026610;28;21009;-84
2023/03/24 09:57:39;;;;;;;12.75;2.00;;;15.50;99.90;;;;;;5031943;28;20030;-91
2023/03/24 10:00:27;;;;;;;13.15;3.28;;;15.40;99.90;;;;;;5018138;28;20035;-90
2023/03/24 10:02:58;;;;;;;7.30;1.48;;;15.70;99.90;;;;;;5028018;28;20012;-89
2023/03/24 10:06:05;;;;;;;9.52;1.55;;;16.00;99.90;;;;;;5029038;28;20065;-83
2023/03/24 10:08:38;;;;;;;11.23;3.38;;;15.80;99.90;;;;;;4944536;28;20046;-81
2023/03/24 10:11:15;;;;;;;6.45;1.30;;;16.10;99.90;;;;;;5021711;28;20089;-85
2023/03/24 10:14:14;;;;;;;10.48;1.40;;;15.80;99.90;;;;;;5035332;28;20384;-92
2023/03/24 10:16:49;;;;;;;5.65;1.48;;;15.40;99.90;;;;;;5051392;28;20101;-91
2023/03/24 10:19:28;;;;;;;5.00;1.27;;;15.10;99.90;;;;;;5046214;28;20528;-81
2023/03/24 10:22:05;;;;;;;11.23;1.88;;;14.80;99.90;;;;;;5033977;28;20053;-85
2023/03/24 10:24:52;;;;;;;6.32;1.55;;;14.70;99.90;;;;;;5037377;28;20033;-83
2023/03/24 10:28:03;;;;;;;16.10;1.73;;;14.80;99.90;;;;;;5039572;28;20017;-85
2023/03/24 10:30:38;;;;;;;4.07;1.10;;;14.80;99.90;;;;;;5035034;28;20028;-82
2023/03/24 10:33:04;;;;;;;10.73;1.70;;;14.70;99.90;;;;;;5026969;28;20022;-81
2023/03/24 10:35:35;;;;;;;11.43;1.83;;;14.70;99.90;;;;;;5028951;28;20432;-83
2023/03/24 10:38:11;;;;;;;12.38;2.25;;;14.50;99.90;;;;;;5002776;28;20112;-82
2023/03/24 10:40:37;;;;;;;4.63;1.25;;;14.60;99.90;;;;;;5020806;28;20033;-82
2023/03/24 10:43:08;;;;;;;6.00;1.10;;;14.80;99.90;;;;;;5015875;28;20030;-79
2023/03/24 10:45:35;;;;;;;8.27;1.77;;;14.90;99.90;;;;;;5022242;28;20026;-83
2023/03/24 10:48:02;;;;;;;11.40;1.45;;;15.00;99.90;;;;;;5020842;28;20042;-81
2023/03/24 10:50:31;;;;;;;9.73;1.08;;;15.00;99.90;;;;;;5015391;28;20116;-84
2023/03/24 10:52:57;;;;;;;9.82;1.45;;;15.10;99.90;;;;;;5012593;28;20687;-82
2023/03/24 10:55:35;;;;;;;9.15;1.27;;;15.10;99.90;;;;;;5018480;28;20108;-81
2023/03/24 10:58:01;;;;;;;10.82;1.48;;;14.80;99.90;;;;;;5023809;28;20034;-91
2023/03/24 11:00:31;;;;;;;13.23;1.45;;;14.90;99.90;;;;;;5010079;28;21021;-81
2023/03/24 11:03:00;;;;;;;4.28;1.08;;;14.90;99.90;;;;;;5011248;28;20018;-82
2023/03/24 11:05:33;;;;;;;7.72;1.42;;;14.80;99.90;;;;;;5029421;28;20028;-82
2023/03/24 11:08:27;;;;;;;6.78;1.27;;;14.70;99.90;;;;;;5016602;28;20046;-82
2023/03/24 11:10:54;;;;;;;9.43;1.65;;;14.80;99.90;;;;;;5017367;28;20029;-85
2023/03/24 11:13:31;;;;;;;8.73;1.50;;;14.90;99.90;;;;;;5013420;28;20033;-81
2023/03/24 11:16:16;;;;;;;105.80;36.78;;;15.00;99.90;;;;;;5021468;28;20294;-84
2023/03/24 11:19:00;;;;;;;10.93;1.48;;;15.10;99.90;;;;;;5019785;28;20057;-81
2023/03/24 11:21:31;;;;;;;7.22;1.40;;;15.10;99.90;;;;;;5011575;28;20059;-82
2023/03/24 11:24:00;;;;;;;8.02;1.30;;;15.10;99.90;;;;;;5014976;28;20087;-88
2023/03/24 11:26:37;;;;;;;3.05;0.95;;;15.20;99.90;;;;;;5019160;28;20034;-84
2023/03/24 11:29:14;;;;;;;5.78;1.75;;;15.30;99.90;;;;;;5018296;28;20078;-87
2023/03/24 11:31:44;;;;;;;4.70;1.10;;;15.00;99.90;;;;;;5015601;28;20054;-85
2023/03/24 11:34:13;;;;;;;7.03;1.50;;;15.10;99.90;;;;;;5014218;28;20026;-80
2023/03/24 11:36:57;;;;;;;8.40;1.40;;;15.30;99.90;;;;;;5012062;28;20026;-96
2023/03/24 11:39:28;;;;;;;11.70;1.45;;;15.70;99.90;;;;;;5018563;28;20029;-82
2023/03/24 11:42:11;;;;;;;11.55;1.65;;;16.00;99.90;;;;;;5014737;28;20470;-86
2023/03/24 11:44:51;;;;;;;12.00;1.58;;;16.10;99.90;;;;;;5014235;28;20500;-80
2023/03/24 11:47:37;;;;;;;5.72;1.30;;;16.40;99.90;;;;;;5015071;28;20034;-81
2023/03/24 11:50:08;;;;;;;5.45;0.90;;;16.20;99.90;;;;;;5033265;28;20176;-82
2023/03/24 11:52:53;;;;;;;10.02;1.95;;;16.10;99.90;;;;;;5017202;28;20036;-81
2023/03/24 11:55:52;;;;;;;8.25;1.17;;;16.10;99.90;;;;;;5018243;28;20132;-81
2023/03/24 11:58:46;;;;;;;6.20;1.17;;;16.20;99.90;;;;;;5019795;28;20041;-81
2023/03/24 12:01:20;;;;;;;5.25;1.23;;;16.20;99.90;;;;;;5010174;28;20023;-81
2023/03/24 12:04:23;;;;;;;108.47;27.65;;;16.30;99.90;;;;;;5015543;28;20021;-82
2023/03/24 12:07:06;;;;;;;6.15;1.00;;;16.30;99.90;;;;;;5011967;28;20318;-82
2023/03/24 12:09:37;;;;;;;;;;;16.00;99.90;;;;;;5031512;28;20419;-82
2023/03/24 12:12:11;;;;;;;7.50;1.10;;;16.10;99.90;;;;;;5017711;28;20097;-80
2023/03/24 12:15:14;;;;;;;7.25;1.25;;;15.90;99.90;;;;;;5018543;28;20081;-78
2023/03/24 12:17:44;;;;;;;5.93;1.38;;;15.90;99.90;;;;;;5009833;28;20791;-82
2023/03/24 12:20:18;;;;;;;6.55;1.30;;;16.00;99.90;;;;;;5017130;28;20041;-80
2023/03/24 12:23:12;;;;;;;5.78;1.00;;;16.40;99.90;;;;;;5006761;28;20030;-85
2023/03/24 12:25:59;;;;;;;5.30;1.13;;;17.00;99.90;;;;;;5003873;28;20050;-82
2023/03/24 12:29:07;;;;;;;6.15;1.70;;;17.40;99.90;;;;;;5015498;28;20022;-81
2023/03/24 12:31:57;;;;;;;49.63;16.60;;;17.30;99.70;;;;;;4982299;28;20532;-82
2023/03/24 12:34:37;;;;;;;7.78;1.30;;;17.40;99.90;;;;;;5016623;28;20036;-83
2023/03/24 12:37:32;;;;;;;7.35;1.45;;;17.90;99.50;;;;;;5015379;28;20182;-81
2023/03/24 12:40:09;;;;;;;8.93;1.55;;;18.90;98.30;;;;;;5010524;28;20317;-80
2023/03/24 12:42:44;;;;;;;10.38;1.42;;;19.10;95.70;;;;;;5011202;28;20029;-80
2023/03/24 12:45:18;;;;;;;6.18;1.70;;;18.80;95.90;;;;;;5016684;28;20096;-84
2023/03/24 12:48:05;;;;;;;7.22;1.23;;;18.50;94.90;;;;;;5010187;28;20041;-81
2023/03/24 12:50:39;;;;;;;3.63;0.93;;;17.60;94.60;;;;;;5022064;28;20029;-80
2023/03/24 12:53:33;;;;;;;10.18;1.60;;;17.60;96.10;;;;;;5022106;28;20022;-79
2023/03/24 12:56:33;;;;;;;3.85;1.58;;;17.40;97.30;;;;;;5020783;28;20028;-78
2023/03/24 12:59:08;;;;;;;7.30;1.70;;;16.90;97.50;;;;;;5017625;28;20108;-84
2023/03/24 13:01:37;;;;;;;8.65;1.50;;;16.70;98.30;;;;;;5017821;28;20219;-85
2023/03/24 13:04:25;;;;;;;6.03;1.60;;;16.50;98.80;;;;;;5018714;28;20026;-87
2023/03/24 13:07:13;;;;;;;9.23;1.42;;;16.00;98.80;;;;;;5034111;28;20117;-81
2023/03/24 13:10:05;;;;;;;7.13;1.40;;;15.90;99.90;;;;;;5017733;28;20456;-83
2023/03/24 13:13:08;;;;;;;9.38;1.48;;;15.60;99.90;;;;;;5018940;28;20048;-81
2023/03/24 13:15:46;;;;;;;8.55;1.35;;;15.30;99.90;;;;;;5018648;28;20059;-78
2023/03/24 13:18:30;;;;;;;4.45;1.05;;;15.20;99.90;;;;;;5017243;28;20034;-84
2023/03/24 13:21:10;;;;;;;5.72;1.25;;;14.40;99.90;;;;;;5032169;28;20025;-82